Time;durP1;ratioP1;P1;durP2;ratioP2;P2;SDS_P1;SDS_P2;PMS_P1;PMS_P2;Temp;Humidity;BMP_temperature;BMP_pressure;BME280_temperature;BME280_humidity;BME280_pressure;Samples;Min_cycle;Max_cycle;Signal;HPM_P1;HPM_P2
2022/09/29 00:00:11;;;;;;;8.47;5.53;;;4.60;99.90;;;;;;5097270;28;20223;-90
2022/09/29 00:02:40;;;;;;;6.63;4.77;;;4.60;99.90;;;;;;5097395;28;20791;-90
2022/09/29 00:05:06;;;;;;;10.63;5.43;;;4.60;99.90;;;;;;5096971;28;20892;-91
2022/09/29 00:07:31;;;;;;;7.03;4.17;;;4.50;99.90;;;;;;5097185;28;20494;-89
2022/09/29 00:09:57;;;;;;;12.13;5.23;;;4.50;99.90;;;;;;5095837;28;20463;-88
2022/09/29 00:12:23;;;;;;;7.10;4.50;;;4.50;99.90;;;;;;5095223;28;20180;-88
2022/09/29 00:14:49;;;;;;;6.23;3.40;;;4.50;99.90;;;;;;5094851;28;20221;-88
2022/09/29 00:17:24;;;;;;;8.87;5.17;;;4.50;99.90;;;;;;5096390;28;20756;-88
2022/09/29 00:19:49;;;;;;;6.97;4.67;;;4.60;99.90;;;;;;5096710;28;20175;-90
2022/09/29 00:22:15;;;;;;;13.33;6.63;;;4.80;99.90;;;;;;5095095;28;20776;-86
2022/09/29 00:24:40;;;;;;;7.80;4.77;;;4.70;99.90;;;;;;5096542;28;20195;-87
2022/09/29 00:27:06;;;;;;;6.57;5.40;;;4.50;99.90;;;;;;5096451;28;20169;-89
2022/09/29 00:29:31;;;;;;;8.73;5.97;;;4.50;99.90;;;;;;5095187;28;20175;-88
2022/09/29 00:31:56;;;;;;;6.40;4.43;;;4.50;99.90;;;;;;5095660;28;20177;-87
2022/09/29 00:34:22;;;;;;;9.87;4.23;;;4.40;99.90;;;;;;5096468;28;20194;-88
2022/09/29 00:36:47;;;;;;;5.40;3.90;;;4.50;99.90;;;;;;5095453;28;20228;-89
2022/09/29 00:39:13;;;;;;;8.33;4.90;;;4.40;99.90;;;;;;5096769;28;20175;-88
2022/09/29 00:41:40;;;;;;;7.63;4.67;;;4.40;99.90;;;;;;5096538;28;20654;-87
2022/09/29 00:44:12;;;;;;;8.70;4.30;;;4.40;99.90;;;;;;5095101;28;20174;-89
2022/09/29 00:46:48;;;;;;;5.93;4.10;;;4.30;99.90;;;;;;5094829;28;20483;-88
2022/09/29 00:49:17;;;;;;;7.80;4.87;;;4.30;99.90;;;;;;5096383;28;20472;-90
2022/09/29 00:51:49;;;;;;;6.10;4.20;;;4.30;99.90;;;;;;5094874;28;20417;-90
2022/09/29 00:54:16;;;;;;;6.27;3.70;;;4.40;99.90;;;;;;5095233;28;20416;-91
2022/09/29 00:56:43;;;;;;;6.20;3.43;;;4.30;99.90;;;;;;5096414;28;20411;-90
2022/09/29 00:59:22;;;;;;;7.03;4.80;;;4.30;99.90;;;;;;5096537;28;20407;-88
2022/09/29 01:01:48;;;;;;;5.90;3.80;;;4.30;99.90;;;;;;5095230;28;20418;-90
2022/09/29 01:04:18;;;;;;;5.17;3.70;;;4.40;99.90;;;;;;5095392;28;20419;-90
2022/09/29 01:06:49;;;;;;;5.63;4.10;;;4.50;99.90;;;;;;5094881;28;20437;-91
2022/09/29 01:09:18;;;;;;;7.17;3.90;;;4.40;99.90;;;;;;5095106;28;20933;-90
2022/09/29 01:11:44;;;;;;;7.20;3.50;;;4.40;99.90;;;;;;5094810;28;20425;-86
2022/09/29 01:14:10;;;;;;;4.60;3.87;;;4.40;99.90;;;;;;5096257;28;20477;-90
2022/09/29 01:16:38;;;;;;;4.93;3.73;;;4.40;99.90;;;;;;5094884;28;20421;-91
2022/09/29 01:19:39;;;;;;;5.70;4.07;;;4.40;99.90;;;;;;5095855;28;20178;-86
2022/09/29 01:22:21;;;;;;;7.07;3.60;;;4.20;99.90;;;;;;5033375;28;20492;-90
2022/09/29 01:25:00;;;;;;;4.27;3.63;;;4.20;99.90;;;;;;5033919;28;20826;-89
2022/09/29 01:27:44;;;;;;;7.67;4.13;;;4.30;99.90;;;;;;5096022;28;20403;-90
2022/09/29 01:30:33;;;;;;;4.23;2.67;;;4.30;99.90;;;;;;5094946;28;20507;-89
2022/09/29 01:33:21;;;;;;;5.90;4.20;;;4.40;99.90;;;;;;5096063;28;20416;-91
2022/09/29 01:36:14;;;;;;;5.17;3.20;;;4.50;99.90;;;;;;5094283;28;20420;-88
2022/09/29 01:39:17;;;;;;;4.90;3.40;;;4.70;99.90;;;;;;5094338;28;20425;-90
2022/09/29 01:42:09;;;;;;;5.77;2.57;;;4.50;99.90;;;;;;5094794;28;20429;-89
2022/09/29 01:44:43;;;;;;;4.80;3.10;;;4.40;99.90;;;;;;5094797;28;20451;-91
2022/09/29 01:47:23;;;;;;;4.47;2.53;;;4.50;99.90;;;;;;5094741;28;20460;-89
2022/09/29 01:50:10;;;;;;;3.43;2.57;;;4.60;99.90;;;;;;5093969;28;20421;-91
2022/09/29 01:52:41;;;;;;;5.37;3.80;;;4.70;99.90;;;;;;5094101;28;20952;-90
2022/09/29 01:55:15;;;;;;;4.97;3.00;;;4.80;99.90;;;;;;5095218;28;20499;-90
2022/09/29 01:57:57;;;;;;;3.67;3.10;;;4.70;99.90;;;;;;5095242;28;20887;-89
2022/09/29 02:00:30;;;;;;;6.53;4.03;;;4.60;99.90;;;;;;5093720;28;20496;-88
2022/09/29 02:03:15;;;;;;;4.83;2.23;;;4.60;99.90;;;;;;5093916;28;20779;-90
2022/09/29 02:05:51;;;;;;;3.70;2.43;;;4.60;99.90;;;;;;5094783;28;20549;-89
2022/09/29 02:08:48;;;;;;;6.50;4.20;;;4.50;99.90;;;;;;5095096;28;20404;-91
2022/09/29 02:11:16;;;;;;;6.13;3.37;;;4.50;99.90;;;;;;5095082;28;20411;-91
2022/09/29 02:13:56;;;;;;;7.10;2.57;;;4.50;99.90;;;;;;5094986;28;20413;-88
2022/09/29 02:16:30;;;;;;;4.17;2.57;;;4.40;99.90;;;;;;5094861;28;20463;-89
2022/09/29 02:19:14;;;;;;;3.00;2.10;;;4.30;99.90;;;;;;5094433;28;20419;-90
2022/09/29 02:21:41;;;;;;;5.20;2.70;;;4.40;99.90;;;;;;5094708;28;20874;-90
2022/09/29 02:24:09;;;;;;;5.83;3.70;;;4.40;99.90;;;;;;5094542;28;20447;-91
2022/09/29 02:26:35;;;;;;;5.30;2.70;;;4.40;99.90;;;;;;5093179;28;20477;-91
2022/09/29 02:29:01;;;;;;;4.07;2.13;;;4.30;99.90;;;;;;5094410;28;20410;-89
2022/09/29 02:31:27;;;;;;;4.37;3.00;;;4.20;99.90;;;;;;5094042;28;20185;-90
2022/09/29 02:33:54;;;;;;;6.13;4.43;;;4.20;99.90;;;;;;5094544;28;20468;-91
2022/09/29 02:36:50;;;;;;;2.97;2.00;;;4.20;99.90;;;;;;5092238;28;20178;-90
2022/09/29 02:39:27;;;;;;;3.80;2.70;;;4.10;99.90;;;;;;5094517;28;20490;-91
2022/09/29 02:42:09;;;;;;;3.63;2.50;;;4.10;99.90;;;;;;5094463;28;20414;-90
2022/09/29 02:45:04;;;;;;;3.20;2.10;;;4.20;99.90;;;;;;5093301;28;20409;-91
2022/09/29 02:48:00;;;;;;;5.67;2.93;;;4.40;99.90;;;;;;5046348;28;20463;-92
2022/09/29 02:50:51;;;;;;;4.40;2.83;;;4.50;99.90;;;;;;5093081;28;20434;-92
2022/09/29 02:53:23;;;;;;;4.00;2.43;;;4.40;99.90;;;;;;5093032;28;20583;-90
2022/09/29 02:56:12;;;;;;;5.03;2.70;;;4.40;99.90;;;;;;5094224;28;20413;-89
2022/09/29 02:58:52;;;;;;;4.13;3.00;;;4.50;99.90;;;;;;5092544;28;20452;-87
2022/09/29 03:01:18;;;;;;;5.00;2.83;;;4.40;99.90;;;;;;5093109;28;20506;-89
2022/09/29 03:03:43;;;;;;;4.20;3.13;;;4.50;99.90;;;;;;5094200;28;20446;-91
2022/09/29 03:06:11;;;;;;;7.03;2.83;;;4.60;99.90;;;;;;5108818;28;20207;-89
2022/09/29 03:08:36;;;;;;;3.73;2.80;;;4.50;99.90;;;;;;5116262;28;20168;-88
2022/09/29 03:11:02;;;;;;;4.13;2.33;;;4.40;99.90;;;;;;5116021;28;20462;-86
2022/09/29 03:13:27;;;;;;;6.10;3.77;;;4.40;99.90;;;;;;5115748;28;20187;-89
2022/09/29 03:15:53;;;;;;;7.50;2.83;;;4.40;99.90;;;;;;5100807;28;20223;-90
2022/09/29 03:18:18;;;;;;;4.77;2.83;;;4.50;99.90;;;;;;5092767;28;20171;-89
2022/09/29 03:20:44;;;;;;;4.60;3.33;;;4.50;99.90;;;;;;5093562;28;20180;-89
2022/09/29 03:23:09;;;;;;;6.00;3.13;;;4.60;99.90;;;;;;5093723;28;20228;-89
2022/09/29 03:25:35;;;;;;;7.70;4.70;;;4.50;99.90;;;;;;5093600;28;20246;-88
2022/09/29 03:28:00;;;;;;;7.30;4.27;;;4.50;99.90;;;;;;5092189;28;20208;-88
2022/09/29 03:30:26;;;;;;;6.10;3.70;;;4.50;99.90;;;;;;5093129;28;20168;-89
2022/09/29 03:32:52;;;;;;;8.20;4.17;;;4.50;99.90;;;;;;5093064;28;20169;-86
2022/09/29 03:35:18;;;;;;;7.23;4.27;;;4.40;99.90;;;;;;5091428;28;20174;-87
2022/09/29 03:37:43;;;;;;;6.23;4.23;;;4.50;99.90;;;;;;5091647;28;20554;-87
2022/09/29 03:40:09;;;;;;;5.90;5.13;;;4.40;99.90;;;;;;5093352;28;20176;-89
2022/09/29 03:42:35;;;;;;;7.83;3.80;;;4.40;99.90;;;;;;5093070;28;20176;-87
2022/09/29 03:45:00;;;;;;;11.10;4.57;;;4.30;99.90;;;;;;5092876;28;20575;-89
2022/09/29 03:47:26;;;;;;;6.80;4.67;;;4.20;99.90;;;;;;5092848;28;20304;-90
2022/09/29 03:49:51;;;;;;;7.70;4.03;;;4.10;99.90;;;;;;5092197;28;20659;-89
2022/09/29 03:52:17;;;;;;;6.83;3.87;;;4.10;99.90;;;;;;5091944;28;20176;-89
2022/09/29 03:54:43;;;;;;;5.93;2.73;;;4.00;99.90;;;;;;5092662;28;20174;-88
2022/09/29 03:57:08;;;;;;;8.00;4.63;;;4.00;99.90;;;;;;5091926;28;20806;-88
2022/09/29 03:59:34;;;;;;;6.17;3.60;;;4.00;99.90;;;;;;5092096;28;20234;-87
2022/09/29 04:01:59;;;;;;;10.50;4.03;;;4.20;99.90;;;;;;5091683;28;20261;-89
2022/09/29 04:04:25;;;;;;;8.07;4.00;;;4.30;99.90;;;;;;5091398;28;20184;-89
2022/09/29 04:06:50;;;;;;;6.40;3.67;;;4.20;99.90;;;;;;5091943;28;20214;-86
2022/09/29 04:09:16;;;;;;;7.23;3.80;;;4.20;99.90;;;;;;5093899;28;20260;-90
2022/09/29 04:11:41;;;;;;;7.13;4.40;;;4.20;99.90;;;;;;5095039;28;20251;-87
2022/09/29 04:14:07;;;;;;;6.60;4.27;;;4.20;99.90;;;;;;5096498;28;20173;-87
2022/09/29 04:16:32;;;;;;;4.63;3.33;;;4.10;99.90;;;;;;5096382;28;20176;-88
2022/09/29 04:18:57;;;;;;;6.60;3.53;;;4.10;99.90;;;;;;5095843;28;20175;-87
2022/09/29 04:21:23;;;;;;;5.30;3.00;;;4.10;99.90;;;;;;5095891;28;20185;-87
2022/09/29 04:23:49;;;;;;;8.40;3.00;;;4.10;99.90;;;;;;5097720;28;20243;-89
2022/09/29 04:26:14;;;;;;;4.90;3.17;;;4.00;99.90;;;;;;5095607;28;20721;-84
2022/09/29 04:28:40;;;;;;;3.37;2.20;;;4.00;99.90;;;;;;5096008;28;20253;-86
2022/09/29 04:31:06;;;;;;;4.00;2.03;;;3.90;99.90;;;;;;5095967;28;20408;-86
2022/09/29 04:33:31;;;;;;;4.67;2.93;;;3.90;99.90;;;;;;5095893;28;20218;-86
2022/09/29 04:35:58;;;;;;;5.03;2.17;;;3.90;99.90;;;;;;5094349;28;20173;-87
2022/09/29 04:38:24;;;;;;;3.30;2.07;;;3.90;99.90;;;;;;5095841;28;20188;-87
2022/09/29 04:40:49;;;;;;;4.57;1.83;;;3.80;99.90;;;;;;5095861;28;20895;-88
2022/09/29 04:43:15;;;;;;;3.03;1.90;;;3.80;99.90;;;;;;5094618;28;20184;-88
2022/09/29 04:45:40;;;;;;;3.50;1.83;;;3.80;99.90;;;;;;5095633;28;20216;-87
2022/09/29 04:48:06;;;;;;;3.90;2.23;;;3.90;99.90;;;;;;5095686;28;20231;-87
2022/09/29 04:50:32;;;;;;;2.70;2.03;;;4.00;99.90;;;;;;5094359;28;20178;-88
2022/09/29 04:52:57;;;;;;;4.40;2.13;;;4.00;99.90;;;;;;5094483;28;20170;-87
2022/09/29 04:55:23;;;;;;;3.10;2.57;;;4.00;99.90;;;;;;5094149;28;20176;-87
2022/09/29 04:57:48;;;;;;;2.53;1.73;;;4.00;99.90;;;;;;5094089;28;20189;-87
2022/09/29 05:00:15;;;;;;;2.50;2.03;;;4.00;99.90;;;;;;5095292;28;20558;-87
2022/09/29 05:02:40;;;;;;;3.50;2.20;;;4.10;99.90;;;;;;5093175;28;20170;-89
2022/09/29 05:05:09;;;;;;;4.50;2.00;;;;;;;;;;5095331;28;20787;-86
2022/09/29 05:07:35;;;;;;;2.60;2.00;;;4.00;99.90;;;;;;5095230;28;20171;-86
2022/09/29 05:10:01;;;;;;;3.77;2.13;;;4.00;99.90;;;;;;5093791;28;20411;-86
2022/09/29 05:12:26;;;;;;;6.00;2.90;;;4.10;99.90;;;;;;5095001;28;20423;-86
2022/09/29 05:14:55;;;;;;;4.20;2.60;;;4.10;99.90;;;;;;5093733;28;20172;-86
2022/09/29 05:17:20;;;;;;;5.30;2.50;;;4.20;99.90;;;;;;5093474;28;20225;-86
2022/09/29 05:19:46;;;;;;;3.70;2.37;;;4.30;99.90;;;;;;5093372;28;20895;-86
2022/09/29 05:22:11;;;;;;;4.27;2.50;;;4.30;99.90;;;;;;5095267;28;20231;-86
2022/09/29 05:24:37;;;;;;;5.87;2.97;;;4.30;99.90;;;;;;5093857;28;20180;-85
2022/09/29 05:27:02;;;;;;;5.63;3.90;;;4.40;99.90;;;;;;5093141;28;20197;-86
2022/09/29 05:29:28;;;;;;;4.43;2.40;;;4.30;99.90;;;;;;5093580;28;20174;-88
2022/09/29 05:31:53;;;;;;;5.27;3.20;;;4.40;99.90;;;;;;5093979;28;20172;-87
2022/09/29 05:34:19;;;;;;;8.00;3.63;;;4.40;99.90;;;;;;5094281;28;20176;-87
2022/09/29 05:36:44;;;;;;;3.80;2.80;;;4.40;99.90;;;;;;5094045;28;20562;-88
2022/09/29 05:39:10;;;;;;;5.33;3.23;;;4.40;99.90;;;;;;5093364;28;20180;-85
2022/09/29 05:41:36;;;;;;;7.70;3.90;;;4.50;99.90;;;;;;5094463;28;20322;-85
2022/09/29 05:44:02;;;;;;;6.67;3.73;;;4.50;99.90;;;;;;5092866;28;20180;-85
2022/09/29 05:46:27;;;;;;;6.60;4.17;;;4.70;99.90;;;;;;5092851;28;20232;-87
2022/09/29 05:48:53;;;;;;;5.00;3.77;;;4.80;99.90;;;;;;5092873;28;20178;-87
2022/09/29 05:51:21;;;;;;;6.20;3.03;;;4.80;99.90;;;;;;5092687;28;20479;-87
2022/09/29 05:53:47;;;;;;;6.07;3.30;;;4.90;99.90;;;;;;5092929;28;20229;-86
2022/09/29 05:56:15;;;;;;;7.13;3.57;;;5.00;99.90;;;;;;5094152;28;20419;-86
2022/09/29 05:58:41;;;;;;;5.87;3.67;;;5.10;99.90;;;;;;5092534;28;20184;-87
2022/09/29 06:01:10;;;;;;;5.57;3.33;;;5.20;99.90;;;;;;5094127;28;20492;-86
2022/09/29 06:03:36;;;;;;;7.90;5.37;;;5.40;99.90;;;;;;5093050;28;20533;-85
2022/09/29 06:06:06;;;;;;;6.10;4.10;;;5.50;99.90;;;;;;5092293;28;20481;-85
2022/09/29 06:08:32;;;;;;;6.90;4.47;;;5.50;99.90;;;;;;5093932;28;20166;-84
2022/09/29 06:11:20;;;;;;;7.40;3.80;;;5.60;99.90;;;;;;5093777;28;20511;-85
2022/09/29 06:13:47;;;;;;;8.00;4.90;;;5.60;99.90;;;;;;5093817;28;20411;-84
2022/09/29 06:16:14;;;;;;;6.77;5.03;;;5.70;99.90;;;;;;5093770;28;20532;-87
2022/09/29 06:18:40;;;;;;;5.80;3.80;;;5.80;99.90;;;;;;5092189;28;20502;-86
2022/09/29 06:21:09;;;;;;;6.80;4.60;;;6.10;99.90;;;;;;5093663;28;20974;-87
2022/09/29 06:23:35;;;;;;;9.43;5.87;;;6.20;99.90;;;;;;5093726;28;20178;-87
2022/09/29 06:26:03;;;;;;;6.30;3.57;;;6.40;99.90;;;;;;5092303;28;20860;-87
2022/09/29 06:28:30;;;;;;;10.27;4.77;;;6.40;99.90;;;;;;5092293;28;20410;-88
2022/09/29 06:31:07;;;;;;;11.00;5.20;;;7.30;99.90;;;;;;5093464;28;20431;-87
2022/09/29 06:33:35;;;;;;;10.10;6.23;;;9.10;99.90;;;;;;5093056;28;20473;-86
2022/09/29 06:38:48;;;;;;;9.00;6.17;;;10.20;99.90;;;;;;5093476;28;20421;-86
2022/09/29 06:41:13;;;;;;;8.60;5.40;;;10.40;99.90;;;;;;5092008;28;20419;-87
2022/09/29 06:43:39;;;;;;;8.27;5.57;;;10.20;99.90;;;;;;5093314;28;20189;-86
2022/09/29 06:46:04;;;;;;;10.47;5.20;;;10.10;99.90;;;;;;5093024;28;20254;-87
2022/09/29 06:48:30;;;;;;;10.03;6.33;;;10.10;99.90;;;;;;5092065;28;20170;-88
2022/09/29 06:50:56;;;;;;;8.20;5.97;;;10.00;99.90;;;;;;5091743;28;20190;-86
2022/09/29 06:53:22;;;;;;;6.87;5.07;;;9.50;99.90;;;;;;5092068;28;20234;-89
2022/09/29 06:55:55;;;;;;;9.93;5.90;;;9.90;99.90;;;;;;5093675;28;20171;-88
2022/09/29 06:58:22;;;;;;;8.13;6.47;;;10.50;99.90;;;;;;5093423;28;20593;-87
2022/09/29 07:00:50;;;;;;;7.80;4.43;;;10.90;99.90;;;;;;5093573;28;20929;-89
2022/09/29 07:03:16;;;;;;;9.23;5.60;;;11.20;77.50;;;;;;5093296;28;20410;-92
2022/09/29 07:05:42;;;;;;;7.30;5.30;;;11.20;28.70;;;;;;5092668;28;20465;-89
2022/09/29 07:08:08;;;;;;;6.50;5.10;;;10.90;36.00;;;;;;5091678;28;20476;-87
2022/09/29 07:10:34;;;;;;;7.13;5.10;;;11.30;87.90;;;;;;5091397;28;20965;-86
2022/09/29 07:12:59;;;;;;;6.50;5.60;;;12.20;1.00;;;;;;5092886;28;20251;-86
2022/09/29 07:15:30;;;;;;;7.33;5.00;;;12.70;1.00;;;;;;5092678;28;20172;-86
2022/09/29 07:17:59;;;;;;;9.93;4.60;;;12.30;1.00;;;;;;5091548;28;20306;-86
2022/09/29 07:20:25;;;;;;;8.40;6.03;;;12.10;1.00;;;;;;5092369;28;20498;-87
2022/09/29 07:22:51;;;;;;;9.50;5.37;;;11.80;1.00;;;;;;5092886;28;20501;-86
2022/09/29 07:25:17;;;;;;;9.07;6.13;;;11.50;56.00;;;;;;5092772;28;20259;-85
2022/09/29 07:27:42;;;;;;;8.10;6.10;;;12.00;99.90;;;;;;5092965;28;20423;-86
2022/09/29 07:30:11;;;;;;;8.33;5.60;;;12.00;99.90;;;;;;5092879;28;20608;-86
2022/09/29 07:32:37;;;;;;;10.40;7.80;;;12.80;23.60;;;;;;5091463;28;20179;-85
2022/09/29 07:35:02;;;;;;;11.00;6.93;;;13.70;1.00;;;;;;5092627;28;20420;-86
2022/09/29 07:37:29;;;;;;;8.27;6.50;;;13.10;1.00;;;;;;5092852;28;20223;-84
2022/09/29 07:39:54;;;;;;;9.00;6.17;;;13.00;1.00;;;;;;5091467;28;20422;-84
2022/09/29 07:42:20;;;;;;;7.37;5.53;;;13.40;1.00;;;;;;5092576;28;20576;-84
2022/09/29 07:44:46;;;;;;;9.50;6.30;;;12.60;1.00;;;;;;5092850;28;20166;-86
2022/09/29 07:47:12;;;;;;;8.70;6.63;;;12.70;1.00;;;;;;5095399;28;20209;-86
2022/09/29 07:49:41;;;;;;;8.87;6.63;;;12.70;1.00;;;;;;5096237;28;20791;-85
2022/09/29 07:52:07;;;;;;;8.63;6.53;;;13.00;1.00;;;;;;5096577;28;20421;-86
2022/09/29 07:54:33;;;;;;;10.43;7.33;;;13.40;99.90;;;;;;5096637;28;20473;-86
2022/09/29 07:56:59;;;;;;;9.33;6.50;;;14.20;1.00;;;;;;5096437;28;20405;-84
2022/09/29 07:59:26;;;;;;;7.13;5.20;;;14.90;1.00;;;;;;5095213;28;20407;-84
2022/09/29 08:01:52;;;;;;;7.43;5.60;;;15.20;99.90;;;;;;5096257;28;20497;-84
2022/09/29 08:04:18;;;;;;;7.50;5.97;;;14.90;6.70;;;;;;5095919;28;20501;-85
2022/09/29 08:06:43;;;;;;;8.33;6.43;;;14.60;13.00;;;;;;5096193;28;20215;-83
2022/09/29 08:09:09;;;;;;;8.50;7.17;;;14.50;1.00;;;;;;5094842;28;20275;-83
2022/09/29 08:11:37;;;;;;;7.27;6.57;;;13.70;99.90;;;;;;5096238;28;20215;-84
2022/09/29 08:14:03;;;;;;;9.03;7.00;;;12.70;1.00;;;;;;5094648;28;20173;-83
2022/09/29 08:16:29;;;;;;;9.10;6.60;;;12.30;99.90;;;;;;5094680;28;20417;-84
2022/09/29 08:18:55;;;;;;;8.60;7.37;;;12.20;99.90;;;;;;5095645;28;20428;-85
2022/09/29 08:21:20;;;;;;;8.20;6.67;;;12.20;99.90;;;;;;5094752;28;20954;-86
2022/09/29 08:23:46;;;;;;;7.63;6.00;;;12.60;99.90;;;;;;5094874;28;20176;-85
2022/09/29 08:26:14;;;;;;;9.40;7.30;;;13.00;72.30;;;;;;5096198;28;20581;-84
2022/09/29 08:28:40;;;;;;;8.63;6.77;;;13.30;6.00;;;;;;5096161;28;20261;-83
2022/09/29 08:31:08;;;;;;;8.97;6.80;;;13.30;1.00;;;;;;5095883;28;20779;-84
2022/09/29 08:33:35;;;;;;;7.17;5.50;;;12.90;1.00;;;;;;5095516;28;20497;-85
2022/09/29 08:36:04;;;;;;;11.47;8.37;;;12.60;90.80;;;;;;5096293;28;20417;-85
2022/09/29 08:38:31;;;;;;;9.07;6.30;;;12.50;99.90;;;;;;5096225;28;20416;-85
2022/09/29 08:41:02;;;;;;;8.07;6.40;;;12.50;99.90;;;;;;5096580;28;20773;-86
2022/09/29 08:43:37;;;;;;;8.97;6.47;;;12.50;99.90;;;;;;5094345;28;20820;-86
2022/09/29 08:46:27;;;;;;;8.63;6.73;;;12.50;99.90;;;;;;5095257;28;20510;-86
2022/09/29 08:48:54;;;;;;;8.60;6.40;;;12.60;99.90;;;;;;5093747;28;20456;-87
2022/09/29 08:51:24;;;;;;;6.40;4.90;;;12.60;99.90;;;;;;5095576;28;20410;-86
2022/09/29 08:53:56;;;;;;;9.43;5.87;;;12.60;99.90;;;;;;5094189;28;20424;-88
2022/09/29 08:56:21;;;;;;;8.20;6.07;;;12.60;99.90;;;;;;5095829;28;20412;-89
2022/09/29 08:58:46;;;;;;;7.23;6.03;;;13.00;99.90;;;;;;5095146;28;20438;-84
2022/09/29 09:01:26;;;;;;;10.20;6.93;;;13.30;1.20;;;;;;5096732;28;20174;-86
2022/09/29 09:04:17;;;;;;;11.17;7.63;;;13.70;1.00;;;;;;5099498;28;20172;-81
2022/09/29 09:06:54;;;;;;;8.60;6.70;;;14.10;1.00;;;;;;5111781;28;20465;-84
2022/09/29 09:09:32;;;;;;;7.93;6.50;;;14.60;99.90;;;;;;5331376;22;20469;-79
2022/09/29 09:14:44;;;;;;;9.23;6.20;;;16.60;99.90;;;;;;5094177;22;20468;-80
2022/09/29 09:17:28;;;;;;;8.57;6.93;;;16.80;1.00;;;;;;5081313;22;20184;-80
2022/09/29 09:20:19;;;;;;;7.27;5.83;;;16.50;99.90;;;;;;5049624;28;20854;-80
2022/09/29 09:23:03;;;;;;;7.87;6.47;;;16.20;1.00;;;;;;5050081;28;20434;-80
2022/09/29 09:25:30;;;;;;;7.23;5.43;;;16.40;1.00;;;;;;5046748;28;20951;-80
2022/09/29 09:28:04;;;;;;;7.90;6.40;;;16.50;99.90;;;;;;5081437;22;20904;-83
2022/09/29 09:30:37;;;;;;;6.63;5.90;;;16.80;99.90;;;;;;5035781;28;20821;-88
2022/09/29 09:33:11;;;;;;;6.37;5.50;;;17.20;1.00;;;;;;5054175;28;20424;-81
2022/09/29 09:35:45;;;;;;;7.13;6.43;;;17.70;1.00;;;;;;5054767;28;20694;-92
2022/09/29 09:38:19;;;;;;;6.77;5.50;;;17.90;1.00;;;;;;5053197;28;20442;-81
2022/09/29 09:40:51;;;;;;;7.03;5.93;;;17.90;99.90;;;;;;5059174;28;20413;-82
2022/09/29 09:43:26;;;;;;;7.47;6.67;;;18.50;99.90;;;;;;5073343;28;20757;-82
2022/09/29 09:46:13;;;;;;;7.60;6.33;;;19.40;99.90;;;;;;5055201;28;20477;-81
2022/09/29 09:48:48;;;;;;;7.87;6.80;;;19.80;99.90;;;;;;5054757;28;20414;-81
2022/09/29 09:51:38;;;;;;;7.80;7.10;;;19.80;99.90;;;;;;5073484;28;21009;-83
2022/09/29 09:54:10;;;;;;;7.03;5.40;;;19.50;99.90;;;;;;5055431;28;20449;-85
2022/09/29 09:56:58;;;;;;;8.27;6.47;;;20.20;99.90;;;;;;5073936;28;20423;-82
2022/09/29 09:59:51;;;;;;;10.10;5.53;;;19.70;99.90;;;;;;5074066;28;20499;-82
2022/09/29 10:02:21;;;;;;;7.20;6.00;;;19.20;99.90;;;;;;5073653;28;20411;-83
2022/09/29 10:04:54;;;;;;;7.57;6.17;;;18.80;99.90;;;;;;5054845;28;20911;-79
2022/09/29 10:07:23;;;;;;;7.33;5.63;;;18.50;99.90;;;;;;5074195;28;20419;-81
2022/09/29 10:09:49;;;;;;;7.17;5.73;;;18.80;99.90;;;;;;5073401;28;20515;-81
2022/09/29 10:12:17;;;;;;;5.63;5.03;;;19.20;99.90;;;;;;5073650;28;20498;-80
2022/09/29 10:15:10;;;;;;;7.23;5.60;;;18.80;99.90;;;;;;5073534;28;20456;-84
2022/09/29 10:17:40;;;;;;;5.33;4.83;;;19.10;99.90;;;;;;5073580;28;20408;-81
2022/09/29 10:20:07;;;;;;;4.83;4.20;;;19.30;99.90;;;;;;5073485;28;20430;-81
2022/09/29 10:22:36;;;;;;;6.50;4.87;;;18.70;99.90;;;;;;5055236;28;20416;-81
2022/09/29 10:25:11;;;;;;;5.43;4.93;;;18.10;99.90;;;;;;5073122;28;21164;-80
2022/09/29 10:27:41;;;;;;;6.30;4.93;;;18.00;99.90;;;;;;5073089;28;20459;-81
2022/09/29 10:30:19;;;;;;;8.90;5.67;;;17.70;99.90;;;;;;5073032;28;20407;-83
2022/09/29 10:32:45;;;;;;;5.37;4.50;;;17.60;99.90;;;;;;5072886;28;20422;-81
2022/09/29 10:35:14;;;;;;;7.03;4.97;;;17.20;1.00;;;;;;5072921;28;20427;-80
2022/09/29 10:37:45;;;;;;;8.00;4.63;;;16.50;1.00;;;;;;5073093;28;20552;-84
2022/09/29 10:40:10;;;;;;;6.03;4.60;;;16.00;1.00;;;;;;5073021;28;20473;-84
2022/09/29 10:42:40;;;;;;;7.30;5.37;;;15.40;1.00;;;;;;5073123;28;20444;-80
2022/09/29 10:45:15;;;;;;;7.27;5.10;;;15.20;1.00;;;;;;5073043;28;20205;-81
2022/09/29 10:48:05;;;;;;;4.37;3.93;;;15.10;99.90;;;;;;5073010;28;20948;-80
2022/09/29 10:50:46;;;;;;;6.50;4.97;;;14.80;1.00;;;;;;5072404;28;20429;-80
2022/09/29 10:53:30;;;;;;;7.00;4.90;;;15.00;1.00;;;;;;5073032;28;20457;-80
2022/09/29 10:55:59;;;;;;;5.97;4.30;;;15.40;26.80;;;;;;5072856;28;20812;-81
2022/09/29 10:58:35;;;;;;;7.90;4.37;;;15.70;99.90;;;;;;5072852;28;20415;-82
2022/09/29 11:01:08;;;;;;;4.13;3.47;;;15.90;31.70;;;;;;5072834;28;20438;-83
2022/09/29 11:03:38;;;;;;;4.30;2.47;;;16.60;54.90;;;;;;5072305;28;20440;-81
2022/09/29 11:06:10;;;;;;;5.27;2.73;;;17.70;99.90;;;;;;5072779;28;20968;-80
2022/09/29 11:09:05;;;;;;;3.73;3.03;;;17.90;14.70;;;;;;5065082;28;20441;-83
2022/09/29 11:11:36;;;;;;;6.40;3.60;;;17.40;1.00;;;;;;5070692;28;20918;-82
2022/09/29 11:14:02;;;;;;;4.27;3.20;;;17.00;99.90;;;;;;5071915;28;20409;-83
2022/09/29 11:16:36;;;;;;;7.10;4.07;;;16.70;99.90;;;;;;5072360;28;20425;-85
2022/09/29 11:19:29;;;;;;;3.93;3.43;;;16.30;99.90;;;;;;5072182;28;20557;-84
2022/09/29 11:22:23;;;;;;;6.27;3.80;;;15.70;1.00;;;;;;5072223;28;20920;-85
2022/09/29 11:25:12;;;;;;;4.67;2.90;;;15.50;1.00;;;;;;5076527;28;20919;-82
2022/09/29 11:27:56;;;;;;;4.77;2.43;;;15.20;99.90;;;;;;5076215;28;20508;-82
2022/09/29 11:30:25;;;;;;;5.10;3.00;;;15.10;90.60;;;;;;5076406;28;20418;-81
2022/09/29 11:32:59;;;;;;;6.10;3.03;;;14.80;1.00;;;;;;5058225;28;20407;-85
2022/09/29 11:35:44;;;;;;;5.37;3.40;;;14.60;1.00;;;;;;5075925;28;20412;-84
2022/09/29 11:38:43;;;;;;;4.13;2.90;;;14.40;99.90;;;;;;5076234;28;20489;-82
2022/09/29 11:41:19;;;;;;;5.37;3.60;;;14.10;1.00;;;;;;5076289;28;20522;-85
2022/09/29 11:44:22;;;;;;;5.27;3.00;;;14.00;1.00;;;;;;5076042;28;20914;-84
2022/09/29 11:47:12;;;;;;;6.37;3.20;;;13.90;1.00;;;;;;5075985;28;20485;-84
2022/09/29 11:50:05;;;;;;;4.40;2.80;;;14.10;1.00;;;;;;5075690;28;20414;-82
2022/09/29 11:53:04;;;;;;;6.03;3.20;;;14.10;1.00;;;;;;5075730;28;20419;-85
2022/09/29 11:55:48;;;;;;;8.37;3.70;;;13.90;1.00;;;;;;5037017;28;20411;-83
2022/09/29 11:58:45;;;;;;;5.53;3.27;;;13.80;1.00;;;;;;5075822;28;20413;-84
2022/09/29 12:01:23;;;;;;;4.67;3.20;;;13.80;1.00;;;;;;5075913;28;20406;-81
2022/09/29 12:04:15;;;;;;;5.20;3.70;;;13.80;1.00;;;;;;5057695;28;20953;-83
2022/09/29 12:06:54;;;;;;;7.07;4.87;;;13.70;1.00;;;;;;5075273;28;20464;-81
2022/09/29 12:09:44;;;;;;;5.60;4.10;;;13.80;1.00;;;;;;5076109;28;20459;-81
2022/09/29 12:12:27;;;;;;;5.03;3.30;;;13.60;1.80;;;;;;5075906;28;20450;-84
2022/09/29 12:15:16;;;;;;;6.20;3.40;;;13.60;4.20;;;;;;5075854;28;20413;-82
2022/09/29 12:17:47;;;;;;;6.30;3.03;;;13.60;1.00;;;;;;5075802;28;20412;-83
2022/09/29 12:20:16;;;;;;;8.17;4.50;;;13.70;1.00;;;;;;5075388;28;20430;-83
2022/09/29 12:22:45;;;;;;;5.67;3.67;;;13.60;1.00;;;;;;5075591;28;20417;-81
2022/09/29 12:25:15;;;;;;;5.80;3.10;;;13.60;37.60;;;;;;5075595;28;20464;-88
2022/09/29 12:27:49;;;;;;;5.93;3.57;;;13.70;99.90;;;;;;5065728;28;20547;-81
2022/09/29 12:30:20;;;;;;;7.63;4.30;;;13.70;99.90;;;;;;5075534;28;20409;-82
2022/09/29 12:32:58;;;;;;;4.90;2.80;;;13.60;53.40;;;;;;5074649;28;20413;-88
2022/09/29 12:35:45;;;;;;;5.83;3.50;;;13.60;94.60;;;;;;5074858;28;20484;-83
2022/09/29 12:38:18;;;;;;;6.53;4.23;;;13.60;37.70;;;;;;5074683;28;20416;-84
2022/09/29 12:41:06;;;;;;;8.40;5.00;;;13.50;44.70;;;;;;5073167;28;20423;-84
2022/09/29 12:43:41;;;;;;;7.83;4.40;;;13.50;84.90;;;;;;5072852;28;20423;-83
2022/09/29 12:46:27;;;;;;;6.60;4.60;;;13.40;92.50;;;;;;5071238;28;20479;-85
2022/09/29 12:49:00;;;;;;;12.60;6.27;;;13.40;99.10;;;;;;5061935;28;20456;-82
2022/09/29 12:51:34;;;;;;;7.30;5.83;;;13.30;99.40;;;;;;5064706;28;20419;-83
2022/09/29 12:54:06;;;;;;;7.67;4.87;;;13.40;99.90;;;;;;5063637;28;20510;-82
2022/09/29 12:56:39;;;;;;;7.50;5.70;;;13.40;99.90;;;;;;5062526;28;20410;-89
2022/09/29 12:59:18;;;;;;;8.10;4.90;;;13.30;99.90;;;;;;5053874;28;20417;-82
2022/09/29 13:01:46;;;;;;;7.73;5.40;;;13.30;99.90;;;;;;5061811;28;20417;-86
2022/09/29 13:04:33;;;;;;;9.97;6.40;;;13.30;99.90;;;;;;5053189;28;20500;-86
2022/09/29 13:07:29;;;;;;;8.30;5.83;;;13.20;99.90;;;;;;5054179;28;20464;-84
2022/09/29 13:10:21;;;;;;;8.90;6.27;;;13.20;99.90;;;;;;5059473;28;20435;-83
2022/09/29 13:12:59;;;;;;;17.10;7.30;;;13.30;99.90;;;;;;5062720;28;20425;-85
2022/09/29 13:15:49;;;;;;;10.80;6.83;;;13.20;99.90;;;;;;5065320;28;20406;-84
2022/09/29 13:18:20;;;;;;;9.03;6.10;;;13.20;99.90;;;;;;5061431;28;20416;-86
2022/09/29 13:21:04;;;;;;;7.70;5.30;;;13.20;99.90;;;;;;5063194;28;20425;-90
2022/09/29 13:23:58;;;;;;;8.40;5.40;;;13.20;99.90;;;;;;5068752;28;21014;-86